メインページ
METAR-TAF:

METAR-TAF

空港 :

マジャンタ空港

ヌメア, ニューカレドニア

緯度: 22-15-30S, 経度: 166-28-22E, 海抜: 3m

METAR: 見つかりません

時間: 00:00 (13:00 UTC)

予報

当レポートは2時間0分前の11:00(UTC)に作成
予報は10日の 12時(UTC)から 11日の 12時(UTC)まで有効
の風 14kt
視程10km以上
高度3500ftの雲はほとんどない
10日の 22時(UTC)から 11日の 01時(UTC)まで徐々に
南東の風 20kt
11日の 07時(UTC)から 11日の 10時(UTC)まで徐々に
の風 12kt

TAF: NWWM 101100Z 1012/1112 08014KT 9999 FEW035 BECMG 1022/1101 14020KT BECMG 1107/1110 08012KT

4,000以上の空港の気象観測と天気予報(METAR報とTAF報)

利用可能な観測所は地図上に黄色い丸と赤い丸で示す。

丸の上にカーソルを重ねると観測所名を参照できる。

次にクリックすると気象観測と天気予報を参照できる。

マップの切り替え:黒色「×」印の緑ボタンをクリックして拡大、「-」印の緑ボタンをクリックして縮小、緑色の三角印をクリックして隣りの地図に切り替え


METAR-TAF: